Flight Track Log - Related Links

Times and Time Zones

All times are in EST time to prevent confusion due to time zone crossing. See the AMF229 flight status page for this flight to view local times or setup timezone preferences in your user account.

Time Position Orientation Groundspeed Altitude Reporting Facility
EST Latitude Longitude Course Direction KTS MPH feet Rate Location/Type
Sat 03:35:40 AM 37.6667 -122.1000 122° Southeast 137 158 1,400  Level Northern Cal TRACON
Sat 03:36:40 AM 37.6500 -122.0667 122° Southeast 134 154 3,000 1,350 Climbing Northern Cal TRACON
Sat 03:37:40 AM 37.6167 -122.0333 142° Southeast 143 165 4,100 950 Climbing Northern Cal TRACON
Sat 03:38:40 AM 37.5833 -122.0000 142° Southeast 155 178 4,900 950 Climbing Northern Cal TRACON
Sat 03:39:40 AM 37.5500 -121.9667 142° Southeast 155 178 6,000 850 Climbing Northern Cal TRACON
Sat 03:40:40 AM 37.5167 -121.9333 142° Southeast 167 192 6,600 526 Climbing Northern Cal TRACON
Sat 03:41:34 AM 37.4833 -121.9000 142° Southeast 181 208 7,000 158 Climbing Northern Cal TRACON
Sat 03:42:34 AM 37.4500 -121.8333 122° Southeast 236 272 6,900 150 Descending Northern Cal TRACON
Sat 03:43:34 AM 37.4000 -121.8000 152° Southeast 194 223 7,300 500 Climbing Northern Cal TRACON
Sat 03:44:34 AM 37.3667 -121.7500 130° Southeast 186 214 7,900 577 Climbing Northern Cal TRACON
Sat 03:45:18 AM 37.3397 -121.7203 139° Southeast 181 208 8,300 635 Climbing Oakland Center
Sat 03:46:18 AM 37.3083 -121.6744 131° Southeast 179 206 9,000 400 Climbing Oakland Center
Sat 03:47:18 AM 37.2683 -121.6242 135° Southeast 192 221 9,100  Climbing Oakland Center
Sat 03:48:18 AM 37.2422 -121.5625 118° Southeast 206 237 9,000 -50 Descending Oakland Center
Sat 03:49:19 AM 37.2192 -121.4947 113° Southeast 210 242 9,000  Level Oakland Center
Sat 03:50:19 AM 37.1869 -121.4386 126° Southeast 202 232 9,000  Level Oakland Center
Sat 03:51:19 AM 37.1497 -121.3872 132° Southeast 197 227 9,000  Level Oakland Center
Sat 03:52:19 AM 37.1103 -121.3392 136° Southeast 198 228 9,000  Level Oakland Center
Sat 03:53:19 AM 37.0706 -121.2869 134° Southeast 199 229 9,000  Level Oakland Center
Sat 03:54:20 AM 37.0342 -121.2347 131° Southeast 197 227 9,000  Level Oakland Center
Sat 03:55:20 AM 36.9967 -121.1833 132° Southeast 201 231 9,000  Level Oakland Center
Sat 03:56:20 AM 36.9611 -121.1333 132° Southeast 198 228 9,000  Level Oakland Center
Sat 03:57:20 AM 36.9267 -121.0781 128° Southeast 199 229 9,000  Level Oakland Center
Sat 03:58:20 AM 36.8914 -121.0256 130° Southeast 199 229 9,000 -50 Level Oakland Center
Sat 03:59:21 AM 36.8533 -120.9706 131° Southeast 202 232 8,900 -50 Descending Oakland Center
Sat 04:00:21 AM 36.8117 -120.9197 136° Southeast 207 238 8,900  Level Oakland Center
Sat 04:01:21 AM 36.7672 -120.8792 144° Southeast 204 235 8,900  Level Oakland Center
Sat 04:02:21 AM 36.7228 -120.8381 143° Southeast 202 232 8,900 50 Level Oakland Center
Sat 04:03:21 AM 36.6772 -120.7961 144° Southeast 203 234 9,000 50 Climbing Oakland Center
Sat 04:04:22 AM 36.6342 -120.7536 142° Southeast 199 229 9,000  Level Oakland Center
Sat 04:05:22 AM 36.5906 -120.7106 142° Southeast 199 229 9,000  Level Oakland Center
Sat 04:06:22 AM 36.5489 -120.6639 138° Southeast 202 232 9,000  Level Oakland Center
Sat 04:07:22 AM 36.5019 -120.6281 148° Southeast 199 229 9,000  Level Oakland Center
Sat 04:08:22 AM 36.4544 -120.5933 150° Southeast 197 227 9,000  Level Oakland Center
Sat 04:09:23 AM 36.4075 -120.5564 148° Southeast 204 235 9,000  Level Oakland Center
Sat 04:10:23 AM 36.3633 -120.5167 144° Southeast 197 227 9,000  Level Oakland Center
Sat 04:11:23 AM 36.3144 -120.4825 151° Southeast 201 231 9,000  Level Oakland Center
Sat 04:12:23 AM 36.2664 -120.4500 151° Southeast 198 228 9,000 -50 Level Oakland Center
Sat 04:13:23 AM 36.2183 -120.4169 151° Southeast 199 229 8,900 -50 Descending Oakland Center
Sat 04:14:23 AM 36.1708 -120.3831 150° Southeast 197 227 8,900 50 Level Oakland Center
Sat 04:15:24 AM 36.1244 -120.3461 147° Southeast 197 227 9,000 50 Climbing Oakland Center
Sat 04:16:24 AM 36.0814 -120.3050 142° Southeast 197 227 9,000  Level Oakland Center
Sat 04:17:24 AM 36.0361 -120.2672 146° Southeast 196 226 9,000  Level Oakland Center
Sat 04:18:24 AM 35.9900 -120.2331 149° Southeast 195 224 9,000  Level Oakland Center
Sat 04:19:24 AM 35.9347 -120.1889 147° Southeast 195 224 9,000  Level Oakland Center
Sat 04:20:24 AM 35.8856 -120.1561 152° Southeast 198 228 9,000 -50 Level Oakland Center
Sat 04:21:25 AM 35.8419 -120.1144 142° Southeast 198 228 8,900  Descending Oakland Center
Sat 04:22:25 AM 35.8025 -120.0897 153° Southeast 200 230 9,000 50 Climbing Oakland Center
Sat 04:23:25 AM 35.7544 -120.0572 151° Southeast 197 227 9,000  Level Oakland Center
Sat 04:24:25 AM 35.7083 -120.0239 150° Southeast 194 223 9,000 -50 Level Oakland Center
Sat 04:25:25 AM 35.6647 -119.9883 146° Southeast 190 219 8,900 -50 Descending Oakland Center
Sat 04:26:25 AM 35.6250 -119.9447 138° Southeast 190 219 8,900 242 Level Oakland Center
Sat 04:27:04 AM 35.5947 -119.9106 137° Southeast 187 215 9,300 606 Climbing Los Angeles Center
Sat 04:28:04 AM 35.5556 -119.8669 138° Southeast 188 216 9,900 600 Climbing Los Angeles Center
Sat 04:29:04 AM 35.5228 -119.8186 130° Southeast 185 213 10,500 550 Climbing Los Angeles Center
Sat 04:30:04 AM 35.4850 -119.7744 136° Southeast 186 214 11,000 250 Climbing Los Angeles Center
Sat 04:31:04 AM 35.4483 -119.7258 133° Southeast 191 220 11,000  Level Los Angeles Center
Sat 04:32:05 AM 35.4089 -119.6781 135° Southeast 196 226 11,000  Level Los Angeles Center
Sat 04:33:05 AM 35.3706 -119.6303 135° Southeast 196 226 11,000  Level Los Angeles Center
Sat 04:34:05 AM 35.3339 -119.5814 133° Southeast 196 226 11,000  Level Los Angeles Center
Sat 04:35:05 AM 35.2969 -119.5311 132° Southeast 197 227 11,000  Level Los Angeles Center
Sat 04:36:05 AM 35.2642 -119.4778 127° Southeast 197 227 11,000 -50 Level Los Angeles Center
Sat 04:37:06 AM 35.2278 -119.4281 132° Southeast 195 224 10,900 -50 Descending Los Angeles Center
Sat 04:38:06 AM 35.1867 -119.3822 138° Southeast 198 228 10,900 50 Level Los Angeles Center
Sat 04:39:06 AM 35.1483 -119.3333 134° Southeast 199 229 11,000 50 Climbing Los Angeles Center
Sat 04:40:06 AM 35.1156 -119.2808 127° Southeast 196 226 11,000  Level Los Angeles Center
Sat 04:41:06 AM 35.0836 -119.2269 126° Southeast 197 227 11,000 -50 Level Los Angeles Center
Sat 04:42:07 AM 35.0531 -119.1731 125° Southeast 194 223 10,900  Descending Los Angeles Center
Sat 04:43:07 AM 35.0153 -119.1250 134° Southeast 195 224 11,000  Climbing Los Angeles Center
Sat 04:44:07 AM 34.9747 -119.0806 138° Southeast 195 224 10,900 -50 Descending Los Angeles Center
Sat 04:45:07 AM 34.9353 -119.0339 136° Southeast 197 227 10,900  Level Los Angeles Center
Sat 04:46:07 AM 34.8942 -118.9869 137° Southeast 198 228 10,900  Level Los Angeles Center
Sat 04:47:07 AM 34.8592 -118.9506 140° Southeast 195 224 10,900 50 Level Los Angeles Center
Sat 04:48:08 AM 34.8256 -118.8986 128° Southeast 195 224 11,000 50 Climbing Los Angeles Center
Sat 04:49:08 AM 34.7869 -118.8547 137° Southeast 192 221 11,000 50 Level Los Angeles Center
Sat 04:50:08 AM 34.7444 -118.8133 141° Southeast 194 223 11,100 -50 Climbing Los Angeles Center
Sat 04:51:08 AM 34.6939 -118.7878 157° South 200 230 10,900 -100 Descending Los Angeles Center
Sat 04:52:08 AM 34.6478 -118.7519 147° Southeast 198 228 10,900 -200 Level Los Angeles Center
Sat 04:53:08 AM 34.5947 -118.7356 166° South 197 227 10,500 -800 Descending Los Angeles Center
Sat 04:54:08 AM 34.5339 -118.7197 168° South 222 255 9,300 -992 Descending Los Angeles Center
Sat 04:55:09 AM 34.4728 -118.7056 169° South 222 255 8,500 -1,041 Descending Los Angeles Center
Sat 04:56:09 AM 34.4169 -118.6844 163° South 214 246 7,200 -1,300 Descending Los Angeles Center
Sat 04:57:09 AM 34.3556 -118.6742 172° South 220 253 5,900 -1,050 Descending Los Angeles Center
Sat 04:58:09 AM 34.2994 -118.6586 167° South 212 244 5,100 -900 Descending Los Angeles Center
Sat 04:59:09 AM 34.2450 -118.6411 165° South 204 235 4,100 -550 Descending Los Angeles Center
Sat 05:00:09 AM 34.2125 -118.5919 129° Southeast 208 239 4,000 -400 Descending Los Angeles Center
Sat 05:01:09 AM 34.1986 -118.5319 106° East 193 222 3,300 -650 Descending Los Angeles Center
Sat 05:02:09 AM 34.1992 -118.4700 89° East 186 214 2,700 -744 Descending Los Angeles Center
Sat 05:03:10 AM 34.1992 -118.4225 90° East 165 190 1,800 -793 Descending Los Angeles Center
Sat 05:04:10 AM 34.1983 -118.3844 92° East 137 158 1,100 -700 Descending Los Angeles Center
Sat 05:06:00 AM 34.2000 -118.3500 90° East  Level FlightAware Approximate

Login

Don't have an account? Register now (free) for customized features, flight alerts, and more!